Due to severe server failure at the provider, not all demo sites are operational. Will take some days to rebuilt everything.

Demonstration site - Click on the  for more information

This is an optional block. Switch it on/off in your settings-file: $SITE['bannerTop'] = false; or $SITE['bannerBottom'] = false;

You can display ads, any other important text or photo’s using text / html or PHP code.

You can place one or more at the top and or bottom and it can all be different for content / size .



Visit our other weather sites:

Template documentation
and downloads

And another site



Nearby METAR Reports

   
EBAW - Antwerp
Updated: 30-03-2020 18:50
Partly Cloudy  
Partly Cloudy  
   Wind: East 5.6 km/h
Wind: East 5.6 km/h
Temperature: 8°C
Wind Chill: 7°C
Dew Point: 3°C
Humidity: 71%
Barometer: 1028 hPa
Clouds: Partly Cloudy
Visibility: More than 10 km
Cloud details: Few Clouds 3200 ft,
Partly Cloudy 4000 ft
EBAW 301650Z 09003KT 9999 FEW032 SCT040 08/03 Q1028 NOSIG
EBLG - Liège
Updated: 30-03-2020 18:50
Partly Cloudy  
Partly Cloudy  
   Wind: North 13 km/h
Wind: North 13 km/h
Temperature: 7°C
Wind Chill: 4°C
Dew Point: -1°C
Humidity: 57%
Barometer: 1027 hPa
Clouds: Partly Cloudy
Visibility: More than 10 km
Cloud details: Few Clouds 3500 ft,
Partly Cloudy 4200 ft
EBLG 301650Z 36007KT 320V030 9999 FEW035 SCT042 07/M01 Q1027 NOSIG
EBCV - Mons/Bergen
Updated: 30-03-2020 18:55
Mostly Cloudy  
Mostly Cloudy  
   Wind: NNE 14.8 km/h
Wind: NNE 14.8 km/h
Temperature: 7°C
Wind Chill: 4°C
Dew Point: 2°C
Humidity: 71%
Barometer: 1028 hPa
Clouds: Mostly Cloudy
Visibility: More than 10 km
Cloud details: Few Clouds 3000 ft,
Mostly Cloudy 5600 ft
EBCV 301655Z AUTO 02008KT 9999 FEW030/// BKN056/// 07/02 Q1028 BLU
EHBK - Maastricht
Updated: 30-03-2020 18:55
Overcast  
Overcast  
   Wind: NNW 11.1 km/h
Wind: NNW 11.1 km/h
Temperature: 7°C
Wind Chill: 5°C
Dew Point: 1°C
Humidity: 66%
Barometer: 1026 hPa
Clouds: Overcast
Visibility: More than 10 km
Cloud details: Few Clouds 4000 ft,
Overcast 4400 ft
EHBK 301655Z AUTO 33006KT 300V010 9999 FEW040 OVC044 07/01 Q1026 NOSIG
ELLX - Luxemburg
Updated: 30-03-2020 18:50
Clear  
Clear  
   Wind: NNE 25.9 km/h
Wind: NNE 25.9 km/h
Temperature: 7°C
Wind Chill: 3°C
Dew Point: -8°C
Humidity: 34%
Barometer: 1024 hPa
Visibility: More than 10 km
Cloud details: Clear ft
ELLX 301650Z 02014KT CAVOK 07/M08 Q1024 NOSIG
EBOS - Oostende
Updated: 30-03-2020 18:50
Mostly Cloudy  
Mostly Cloudy  
   Wind: NNE 22.2 km/h
Wind: NNE 22.2 km/h
Temperature: 7°C
Wind Chill: 3°C
Dew Point: 2°C
Humidity: 71%
Barometer: 1029 hPa
Clouds: Mostly Cloudy
Visibility: More than 10 km
Cloud details: Partly Cloudy 2000 ft,
Mostly Cloudy 3000 ft
EBOS 301650Z 02012KT 9999 SCT020 BKN030 07/02 Q1029 NOSIG

Script developed by  Saratoga-weather.org Adapted for the template by  Weerstation Leuven

This is an optional block. Switch it on/off in your settings-file: $SITE['bannerTop'] = false; or $SITE['bannerBottom'] = false;

You can display ads, any other important text or photo’s using text / html or PHP code.

You can place one or more at the top and or bottom and it can all be different for content / size .